sensor_id;sensor_type;location;lat;lon;timestamp;temperature;humidity
10296;DHT22;5193;51.032;6.356;2023-07-13T00:01:28;15.30;99.90
10296;DHT22;5193;51.032;6.356;2023-07-13T00:03:54;15.20;99.90
10296;DHT22;5193;51.032;6.356;2023-07-13T00:06:20;15.20;99.90
10296;DHT22;5193;51.032;6.356;2023-07-13T00:08:46;15.20;99.90
10296;DHT22;5193;51.032;6.356;2023-07-13T00:11:13;15.10;1.00
10296;DHT22;5193;51.032;6.356;2023-07-13T00:13:40;15.10;1.00
10296;DHT22;5193;51.032;6.356;2023-07-13T00:16:07;15.00;1.00
10296;DHT22;5193;51.032;6.356;2023-07-13T00:18:33;15.10;69.30
10296;DHT22;5193;51.032;6.356;2023-07-13T00:20:58;15.10;1.00
10296;DHT22;5193;51.032;6.356;2023-07-13T00:23:38;15.10;1.00
10296;DHT22;5193;51.032;6.356;2023-07-13T00:26:07;15.10;11.20
10296;DHT22;5193;51.032;6.356;2023-07-13T00:28:33;15.10;1.00
10296;DHT22;5193;51.032;6.356;2023-07-13T00:30:59;15.10;1.00
10296;DHT22;5193;51.032;6.356;2023-07-13T00:33:26;15.10;99.90
10296;DHT22;5193;51.032;6.356;2023-07-13T00:35:53;15.20;1.00
10296;DHT22;5193;51.032;6.356;2023-07-13T00:38:19;15.20;1.00
10296;DHT22;5193;51.032;6.356;2023-07-13T00:40:44;15.20;1.00
10296;DHT22;5193;51.032;6.356;2023-07-13T00:43:16;15.20;1.00
10296;DHT22;5193;51.032;6.356;2023-07-13T00:48:17;15.20;99.90
10296;DHT22;5193;51.032;6.356;2023-07-13T00:50:45;15.10;99.90
10296;DHT22;5193;51.032;6.356;2023-07-13T00:53:12;15.10;99.90
10296;DHT22;5193;51.032;6.356;2023-07-13T00:55:39;15.00;99.90
10296;DHT22;5193;51.032;6.356;2023-07-13T00:58:05;15.00;1.00
10296;DHT22;5193;51.032;6.356;2023-07-13T01:00:34;14.90;1.00
10296;DHT22;5193;51.032;6.356;2023-07-13T01:03:00;14.90;1.00
10296;DHT22;5193;51.032;6.356;2023-07-13T01:05:30;14.80;1.00
10296;DHT22;5193;51.032;6.356;2023-07-13T01:07:57;14.80;1.00
10296;DHT22;5193;51.032;6.356;2023-07-13T01:10:24;14.80;36.60
10296;DHT22;5193;51.032;6.356;2023-07-13T01:12:50;14.80;1.00
10296;DHT22;5193;51.032;6.356;2023-07-13T01:15:41;14.70;1.00
10296;DHT22;5193;51.032;6.356;2023-07-13T01:18:17;14.70;5.50
10296;DHT22;5193;51.032;6.356;2023-07-13T01:20:59;14.60;99.90
10296;DHT22;5193;51.032;6.356;2023-07-13T01:23:26;14.60;99.90
10296;DHT22;5193;51.032;6.356;2023-07-13T01:25:53;14.70;99.90
10296;DHT22;5193;51.032;6.356;2023-07-13T01:28:20;14.60;99.90
10296;DHT22;5193;51.032;6.356;2023-07-13T01:30:47;14.60;99.90
10296;DHT22;5193;51.032;6.356;2023-07-13T01:33:14;14.60;99.90
10296;DHT22;5193;51.032;6.356;2023-07-13T01:35:40;14.50;99.90
10296;DHT22;5193;51.032;6.356;2023-07-13T01:38:06;14.50;99.90
10296;DHT22;5193;51.032;6.356;2023-07-13T01:40:34;14.50;99.90
10296;DHT22;5193;51.032;6.356;2023-07-13T01:43:00;14.40;99.90
10296;DHT22;5193;51.032;6.356;2023-07-13T01:45:26;14.40;99.90
10296;DHT22;5193;51.032;6.356;2023-07-13T01:47:52;14.40;99.90
10296;DHT22;5193;51.032;6.356;2023-07-13T01:50:18;14.30;99.90
10296;DHT22;5193;51.032;6.356;2023-07-13T01:52:44;14.30;99.90
10296;DHT22;5193;51.032;6.356;2023-07-13T01:55:09;14.30;99.90
10296;DHT22;5193;51.032;6.356;2023-07-13T01:57:35;14.30;99.90
10296;DHT22;5193;51.032;6.356;2023-07-13T02:00:03;14.30;99.90
10296;DHT22;5193;51.032;6.356;2023-07-13T02:02:30;14.30;99.90
10296;DHT22;5193;51.032;6.356;2023-07-13T02:04:56;14.20;1.00
10296;DHT22;5193;51.032;6.356;2023-07-13T02:07:21;14.20;99.90
10296;DHT22;5193;51.032;6.356;2023-07-13T02:09:47;14.20;1.00
10296;DHT22;5193;51.032;6.356;2023-07-13T02:12:13;14.20;1.00
10296;DHT22;5193;51.032;6.356;2023-07-13T02:14:38;14.20;1.00
10296;DHT22;5193;51.032;6.356;2023-07-13T02:17:04;14.20;1.00
10296;DHT22;5193;51.032;6.356;2023-07-13T02:19:30;14.20;1.00
10296;DHT22;5193;51.032;6.356;2023-07-13T02:21:56;14.20;1.00
10296;DHT22;5193;51.032;6.356;2023-07-13T02:24:21;14.20;1.00
10296;DHT22;5193;51.032;6.356;2023-07-13T02:26:47;14.20;1.00
10296;DHT22;5193;51.032;6.356;2023-07-13T02:29:13;14.20;1.00
10296;DHT22;5193;51.032;6.356;2023-07-13T02:31:39;14.20;1.00
10296;DHT22;5193;51.032;6.356;2023-07-13T02:34:04;14.20;1.00
10296;DHT22;5193;51.032;6.356;2023-07-13T02:36:31;14.20;1.00
10296;DHT22;5193;51.032;6.356;2023-07-13T02:39:00;14.20;1.00
10296;DHT22;5193;51.032;6.356;2023-07-13T02:41:26;14.20;1.00
10296;DHT22;5193;51.032;6.356;2023-07-13T02:43:52;14.10;1.00
10296;DHT22;5193;51.032;6.356;2023-07-13T02:46:17;14.10;1.00
10296;DHT22;5193;51.032;6.356;2023-07-13T02:48:45;14.00;1.00
10296;DHT22;5193;51.032;6.356;2023-07-13T02:51:11;14.00;1.00
10296;DHT22;5193;51.032;6.356;2023-07-13T02:53:36;14.00;1.00
10296;DHT22;5193;51.032;6.356;2023-07-13T02:56:03;13.90;1.00
10296;DHT22;5193;51.032;6.356;2023-07-13T02:58:30;13.80;1.00
10296;DHT22;5193;51.032;6.356;2023-07-13T03:00:56;13.80;1.00
10296;DHT22;5193;51.032;6.356;2023-07-13T03:03:23;13.70;1.00
10296;DHT22;5193;51.032;6.356;2023-07-13T03:05:58;13.70;1.00
10296;DHT22;5193;51.032;6.356;2023-07-13T03:08:25;13.60;1.00
10296;DHT22;5193;51.032;6.356;2023-07-13T03:11:07;13.60;1.00
10296;DHT22;5193;51.032;6.356;2023-07-13T03:13:34;13.50;1.00
10296;DHT22;5193;51.032;6.356;2023-07-13T03:16:00;13.50;1.00
10296;DHT22;5193;51.032;6.356;2023-07-13T03:18:27;13.40;1.00
10296;DHT22;5193;51.032;6.356;2023-07-13T03:20:53;13.40;1.00
10296;DHT22;5193;51.032;6.356;2023-07-13T03:23:20;13.40;1.00
10296;DHT22;5193;51.032;6.356;2023-07-13T03:25:46;13.40;1.00
10296;DHT22;5193;51.032;6.356;2023-07-13T03:28:12;13.40;1.00
10296;DHT22;5193;51.032;6.356;2023-07-13T03:30:39;13.40;1.00
10296;DHT22;5193;51.032;6.356;2023-07-13T03:33:04;13.40;1.00
10296;DHT22;5193;51.032;6.356;2023-07-13T03:35:30;13.40;1.00
10296;DHT22;5193;51.032;6.356;2023-07-13T03:37:58;13.40;1.00
10296;DHT22;5193;51.032;6.356;2023-07-13T03:40:24;13.40;1.00
10296;DHT22;5193;51.032;6.356;2023-07-13T03:42:51;13.50;1.00
10296;DHT22;5193;51.032;6.356;2023-07-13T03:45:17;13.50;1.00
10296;DHT22;5193;51.032;6.356;2023-07-13T03:47:43;13.50;1.00
10296;DHT22;5193;51.032;6.356;2023-07-13T03:50:09;13.50;1.00
10296;DHT22;5193;51.032;6.356;2023-07-13T03:52:34;13.50;1.00
10296;DHT22;5193;51.032;6.356;2023-07-13T03:55:00;13.50;1.00
10296;DHT22;5193;51.032;6.356;2023-07-13T03:57:25;13.50;1.00
10296;DHT22;5193;51.032;6.356;2023-07-13T03:59:51;13.50;1.00
10296;DHT22;5193;51.032;6.356;2023-07-13T04:02:17;13.60;1.00
10296;DHT22;5193;51.032;6.356;2023-07-13T04:04:43;13.60;1.00
10296;DHT22;5193;51.032;6.356;2023-07-13T04:07:09;13.70;1.00
10296;DHT22;5193;51.032;6.356;2023-07-13T04:09:35;13.70;1.00
10296;DHT22;5193;51.032;6.356;2023-07-13T04:12:01;13.70;1.00
10296;DHT22;5193;51.032;6.356;2023-07-13T04:14:26;13.70;1.00
10296;DHT22;5193;51.032;6.356;2023-07-13T04:16:52;13.80;1.00
10296;DHT22;5193;51.032;6.356;2023-07-13T04:19:20;13.80;1.00
10296;DHT22;5193;51.032;6.356;2023-07-13T04:21:46;13.80;1.00
10296;DHT22;5193;51.032;6.356;2023-07-13T04:24:11;13.90;1.00
10296;DHT22;5193;51.032;6.356;2023-07-13T04:26:37;13.90;1.00
10296;DHT22;5193;51.032;6.356;2023-07-13T04:29:04;14.00;1.00
10296;DHT22;5193;51.032;6.356;2023-07-13T04:31:30;14.00;1.00
10296;DHT22;5193;51.032;6.356;2023-07-13T04:33:56;14.10;1.00
10296;DHT22;5193;51.032;6.356;2023-07-13T04:36:22;14.10;1.00
10296;DHT22;5193;51.032;6.356;2023-07-13T04:38:48;14.20;1.00
10296;DHT22;5193;51.032;6.356;2023-07-13T04:41:15;14.20;1.00
10296;DHT22;5193;51.032;6.356;2023-07-13T04:43:41;14.20;1.00
10296;DHT22;5193;51.032;6.356;2023-07-13T04:46:12;14.30;1.00
10296;DHT22;5193;51.032;6.356;2023-07-13T04:48:38;14.30;1.00
10296;DHT22;5193;51.032;6.356;2023-07-13T04:51:04;14.40;1.00
10296;DHT22;5193;51.032;6.356;2023-07-13T04:53:30;14.40;1.00
10296;DHT22;5193;51.032;6.356;2023-07-13T04:55:56;14.50;1.00
10296;DHT22;5193;51.032;6.356;2023-07-13T04:58:23;14.50;1.00
10296;DHT22;5193;51.032;6.356;2023-07-13T05:00:49;14.60;1.00
10296;DHT22;5193;51.032;6.356;2023-07-13T05:03:14;14.60;1.00
10296;DHT22;5193;51.032;6.356;2023-07-13T05:05:40;14.70;1.00
10296;DHT22;5193;51.032;6.356;2023-07-13T05:08:06;14.80;1.00
10296;DHT22;5193;51.032;6.356;2023-07-13T05:10:33;14.90;1.00
10296;DHT22;5193;51.032;6.356;2023-07-13T05:12:58;14.90;1.00
10296;DHT22;5193;51.032;6.356;2023-07-13T05:15:24;15.10;1.00
10296;DHT22;5193;51.032;6.356;2023-07-13T05:17:50;15.10;1.00
10296;DHT22;5193;51.032;6.356;2023-07-13T05:20:18;15.20;1.00
10296;DHT22;5193;51.032;6.356;2023-07-13T05:22:44;15.20;1.00
10296;DHT22;5193;51.032;6.356;2023-07-13T05:25:12;15.30;1.00
10296;DHT22;5193;51.032;6.356;2023-07-13T05:27:38;15.40;1.00
10296;DHT22;5193;51.032;6.356;2023-07-13T05:30:04;15.40;1.00
10296;DHT22;5193;51.032;6.356;2023-07-13T05:32:30;15.40;1.00
10296;DHT22;5193;51.032;6.356;2023-07-13T05:34:55;15.50;1.00
10296;DHT22;5193;51.032;6.356;2023-07-13T05:37:21;15.50;1.00
10296;DHT22;5193;51.032;6.356;2023-07-13T05:39:46;15.60;1.00
10296;DHT22;5193;51.032;6.356;2023-07-13T05:42:12;15.60;1.00
10296;DHT22;5193;51.032;6.356;2023-07-13T05:44:38;15.60;1.00
10296;DHT22;5193;51.032;6.356;2023-07-13T05:47:03;15.70;1.00
10296;DHT22;5193;51.032;6.356;2023-07-13T05:49:29;15.70;1.00
10296;DHT22;5193;51.032;6.356;2023-07-13T05:51:56;15.80;1.00
10296;DHT22;5193;51.032;6.356;2023-07-13T05:54:21;15.80;1.00
10296;DHT22;5193;51.032;6.356;2023-07-13T05:56:47;15.90;1.00
10296;DHT22;5193;51.032;6.356;2023-07-13T05:59:13;16.00;1.00
10296;DHT22;5193;51.032;6.356;2023-07-13T06:01:38;16.10;1.00
10296;DHT22;5193;51.032;6.356;2023-07-13T06:04:04;16.20;1.00
10296;DHT22;5193;51.032;6.356;2023-07-13T06:06:30;16.30;1.00
10296;DHT22;5193;51.032;6.356;2023-07-13T06:08:55;16.50;1.00
10296;DHT22;5193;51.032;6.356;2023-07-13T06:11:23;16.60;1.00
10296;DHT22;5193;51.032;6.356;2023-07-13T06:13:50;16.80;1.00
10296;DHT22;5193;51.032;6.356;2023-07-13T06:16:16;16.90;1.00
10296;DHT22;5193;51.032;6.356;2023-07-13T06:18:42;17.00;1.00
10296;DHT22;5193;51.032;6.356;2023-07-13T06:21:12;17.20;1.00
10296;DHT22;5193;51.032;6.356;2023-07-13T06:23:38;17.20;1.00
10296;DHT22;5193;51.032;6.356;2023-07-13T06:26:05;17.30;1.00
10296;DHT22;5193;51.032;6.356;2023-07-13T06:28:31;17.40;1.00
10296;DHT22;5193;51.032;6.356;2023-07-13T06:31:00;17.40;1.00
10296;DHT22;5193;51.032;6.356;2023-07-13T06:33:26;17.40;1.00
10296;DHT22;5193;51.032;6.356;2023-07-13T06:35:52;17.30;1.00
10296;DHT22;5193;51.032;6.356;2023-07-13T06:38:18;17.30;1.00
10296;DHT22;5193;51.032;6.356;2023-07-13T06:40:43;17.30;1.00
10296;DHT22;5193;51.032;6.356;2023-07-13T06:43:09;17.30;1.00
10296;DHT22;5193;51.032;6.356;2023-07-13T06:45:44;17.40;1.00
10296;DHT22;5193;51.032;6.356;2023-07-13T06:48:11;17.40;1.00
10296;DHT22;5193;51.032;6.356;2023-07-13T06:50:37;17.40;1.00
10296;DHT22;5193;51.032;6.356;2023-07-13T06:53:02;17.40;1.00
10296;DHT22;5193;51.032;6.356;2023-07-13T06:55:28;17.50;1.00
10296;DHT22;5193;51.032;6.356;2023-07-13T06:57:53;17.60;1.00
10296;DHT22;5193;51.032;6.356;2023-07-13T07:00:19;17.60;1.00
10296;DHT22;5193;51.032;6.356;2023-07-13T07:02:45;17.60;1.00
10296;DHT22;5193;51.032;6.356;2023-07-13T07:05:10;17.70;1.00
10296;DHT22;5193;51.032;6.356;2023-07-13T07:07:36;17.70;1.00
10296;DHT22;5193;51.032;6.356;2023-07-13T07:10:02;17.80;1.00
10296;DHT22;5193;51.032;6.356;2023-07-13T07:12:28;17.80;1.00
10296;DHT22;5193;51.032;6.356;2023-07-13T07:14:54;17.90;99.90
10296;DHT22;5193;51.032;6.356;2023-07-13T07:17:20;17.90;1.00
10296;DHT22;5193;51.032;6.356;2023-07-13T07:19:45;18.10;1.00
10296;DHT22;5193;51.032;6.356;2023-07-13T07:22:11;18.20;1.00
10296;DHT22;5193;51.032;6.356;2023-07-13T07:24:37;18.40;1.00
10296;DHT22;5193;51.032;6.356;2023-07-13T07:27:02;18.40;99.90
10296;DHT22;5193;51.032;6.356;2023-07-13T07:29:28;18.40;1.00
10296;DHT22;5193;51.032;6.356;2023-07-13T07:31:54;18.50;99.90
10296;DHT22;5193;51.032;6.356;2023-07-13T07:34:19;18.50;99.90
10296;DHT22;5193;51.032;6.356;2023-07-13T07:36:45;18.50;99.90
10296;DHT22;5193;51.032;6.356;2023-07-13T07:39:11;18.50;99.90
10296;DHT22;5193;51.032;6.356;2023-07-13T07:41:37;18.50;99.90
10296;DHT22;5193;51.032;6.356;2023-07-13T07:44:03;18.60;99.90
10296;DHT22;5193;51.032;6.356;2023-07-13T07:46:29;18.60;99.90
10296;DHT22;5193;51.032;6.356;2023-07-13T07:48:55;18.70;99.90
10296;DHT22;5193;51.032;6.356;2023-07-13T07:51:21;18.70;99.90
10296;DHT22;5193;51.032;6.356;2023-07-13T07:53:47;18.70;99.90
10296;DHT22;5193;51.032;6.356;2023-07-13T07:56:13;18.80;99.90
10296;DHT22;5193;51.032;6.356;2023-07-13T07:58:39;18.80;99.90
10296;DHT22;5193;51.032;6.356;2023-07-13T08:01:05;18.90;99.90
10296;DHT22;5193;51.032;6.356;2023-07-13T08:03:31;19.00;99.90
10296;DHT22;5193;51.032;6.356;2023-07-13T08:05:57;19.10;1.00
10296;DHT22;5193;51.032;6.356;2023-07-13T08:08:22;19.10;1.00
10296;DHT22;5193;51.032;6.356;2023-07-13T08:10:48;19.10;99.90
10296;DHT22;5193;51.032;6.356;2023-07-13T08:13:13;19.20;1.00
10296;DHT22;5193;51.032;6.356;2023-07-13T08:15:39;19.30;1.00
10296;DHT22;5193;51.032;6.356;2023-07-13T08:18:05;19.40;1.00
10296;DHT22;5193;51.032;6.356;2023-07-13T08:20:31;19.40;1.00
10296;DHT22;5193;51.032;6.356;2023-07-13T08:22:57;19.50;1.00
10296;DHT22;5193;51.032;6.356;2023-07-13T08:25:22;19.60;1.00
10296;DHT22;5193;51.032;6.356;2023-07-13T08:27:48;19.60;99.90
10296;DHT22;5193;51.032;6.356;2023-07-13T08:30:14;19.70;50.60
10296;DHT22;5193;51.032;6.356;2023-07-13T08:32:39;19.80;1.00
10296;DHT22;5193;51.032;6.356;2023-07-13T08:35:05;19.90;99.90
10296;DHT22;5193;51.032;6.356;2023-07-13T08:37:31;19.90;99.90
10296;DHT22;5193;51.032;6.356;2023-07-13T08:39:57;20.00;99.90
10296;DHT22;5193;51.032;6.356;2023-07-13T08:42:36;20.20;1.00
10296;DHT22;5193;51.032;6.356;2023-07-13T08:47:47;20.30;99.90
10296;DHT22;5193;51.032;6.356;2023-07-13T08:50:17;20.40;24.40
10296;DHT22;5193;51.032;6.356;2023-07-13T08:52:45;20.60;99.90
10296;DHT22;5193;51.032;6.356;2023-07-13T08:55:21;20.60;99.90
10296;DHT22;5193;51.032;6.356;2023-07-13T08:58:13;20.80;99.90
10296;DHT22;5193;51.032;6.356;2023-07-13T09:00:59;20.90;99.90
10296;DHT22;5193;51.032;6.356;2023-07-13T09:03:31;21.00;99.90
10296;DHT22;5193;51.032;6.356;2023-07-13T09:05:59;21.10;99.90
10296;DHT22;5193;51.032;6.356;2023-07-13T09:08:55;21.20;99.90
10296;DHT22;5193;51.032;6.356;2023-07-13T09:14:26;21.30;99.90
10296;DHT22;5193;51.032;6.356;2023-07-13T09:16:56;21.30;1.00
10296;DHT22;5193;51.032;6.356;2023-07-13T09:19:28;21.30;1.00
10296;DHT22;5193;51.032;6.356;2023-07-13T09:21:55;21.40;1.00
10296;DHT22;5193;51.032;6.356;2023-07-13T09:27:09;21.50;11.10
10296;DHT22;5193;51.032;6.356;2023-07-13T09:29:41;21.50;1.00
10296;DHT22;5193;51.032;6.356;2023-07-13T09:32:10;21.50;1.00
10296;DHT22;5193;51.032;6.356;2023-07-13T09:34:38;21.60;99.90
10296;DHT22;5193;51.032;6.356;2023-07-13T09:37:04;21.90;1.00
10296;DHT22;5193;51.032;6.356;2023-07-13T09:39:34;22.10;1.00
10296;DHT22;5193;51.032;6.356;2023-07-13T09:42:17;22.20;99.90
10296;DHT22;5193;51.032;6.356;2023-07-13T09:44:55;22.30;99.90
10296;DHT22;5193;51.032;6.356;2023-07-13T09:47:29;22.40;1.00
10296;DHT22;5193;51.032;6.356;2023-07-13T09:49:57;22.60;1.00
10296;DHT22;5193;51.032;6.356;2023-07-13T09:52:24;22.60;1.00
10296;DHT22;5193;51.032;6.356;2023-07-13T09:54:50;22.50;1.00
10296;DHT22;5193;51.032;6.356;2023-07-13T09:57:19;22.50;1.00
10296;DHT22;5193;51.032;6.356;2023-07-13T09:59:49;22.40;99.90
10296;DHT22;5193;51.032;6.356;2023-07-13T10:02:31;22.30;51.30
10296;DHT22;5193;51.032;6.356;2023-07-13T10:05:05;22.20;99.90
10296;DHT22;5193;51.032;6.356;2023-07-13T10:07:35;22.20;1.00
10296;DHT22;5193;51.032;6.356;2023-07-13T10:10:03;22.20;1.00
10296;DHT22;5193;51.032;6.356;2023-07-13T10:12:30;22.40;96.70
10296;DHT22;5193;51.032;6.356;2023-07-13T10:15:02;22.40;99.90
10296;DHT22;5193;51.032;6.356;2023-07-13T10:17:31;22.50;99.90
10296;DHT22;5193;51.032;6.356;2023-07-13T10:20:02;22.60;1.00
10296;DHT22;5193;51.032;6.356;2023-07-13T10:22:49;22.70;98.90
10296;DHT22;5193;51.032;6.356;2023-07-13T10:25:21;22.80;99.90
10296;DHT22;5193;51.032;6.356;2023-07-13T10:27:58;22.80;1.00
10296;DHT22;5193;51.032;6.356;2023-07-13T10:32:53;23.20;99.90
10296;DHT22;5193;51.032;6.356;2023-07-13T10:35:20;23.30;99.90
10296;DHT22;5193;51.032;6.356;2023-07-13T10:38:11;23.40;1.00
10296;DHT22;5193;51.032;6.356;2023-07-13T10:40:40;23.30;99.90
10296;DHT22;5193;51.032;6.356;2023-07-13T10:43:18;23.30;1.00
10296;DHT22;5193;51.032;6.356;2023-07-13T10:45:46;23.20;99.90
10296;DHT22;5193;51.032;6.356;2023-07-13T10:48:15;23.30;99.90
10296;DHT22;5193;51.032;6.356;2023-07-13T10:50:43;23.40;67.40
10296;DHT22;5193;51.032;6.356;2023-07-13T10:53:30;23.50;99.90
10296;DHT22;5193;51.032;6.356;2023-07-13T10:56:28;23.40;1.00
10296;DHT22;5193;51.032;6.356;2023-07-13T11:04:48;23.30;99.90
10296;DHT22;5193;51.032;6.356;2023-07-13T11:07:24;23.30;96.00
10296;DHT22;5193;51.032;6.356;2023-07-13T11:09:58;23.40;1.00
10296;DHT22;5193;51.032;6.356;2023-07-13T11:17:33;23.70;99.90
10296;DHT22;5193;51.032;6.356;2023-07-13T11:22:49;23.60;99.90
10296;DHT22;5193;51.032;6.356;2023-07-13T11:30:41;23.60;1.00
10296;DHT22;5193;51.032;6.356;2023-07-13T11:33:18;23.70;99.90
10296;DHT22;5193;51.032;6.356;2023-07-13T11:35:58;23.70;1.00
10296;DHT22;5193;51.032;6.356;2023-07-13T11:41:15;23.80;1.00
10296;DHT22;5193;51.032;6.356;2023-07-13T11:43:41;23.90;1.00
10296;DHT22;5193;51.032;6.356;2023-07-13T11:48:40;24.40;99.90
10296;DHT22;5193;51.032;6.356;2023-07-13T11:51:07;24.50;1.00
10296;DHT22;5193;51.032;6.356;2023-07-13T11:53:45;24.60;80.00
10296;DHT22;5193;51.032;6.356;2023-07-13T11:56:11;24.60;51.60
10296;DHT22;5193;51.032;6.356;2023-07-13T11:58:38;24.70;99.90
10296;DHT22;5193;51.032;6.356;2023-07-13T12:01:03;24.60;99.90
10296;DHT22;5193;51.032;6.356;2023-07-13T12:03:32;24.50;1.00
10296;DHT22;5193;51.032;6.356;2023-07-13T12:06:17;24.50;28.60
10296;DHT22;5193;51.032;6.356;2023-07-13T12:08:46;24.60;99.90
10296;DHT22;5193;51.032;6.356;2023-07-13T12:11:16;24.80;21.90
10296;DHT22;5193;51.032;6.356;2023-07-13T12:13:44;24.80;1.00
10296;DHT22;5193;51.032;6.356;2023-07-13T12:16:14;24.80;1.00
10296;DHT22;5193;51.032;6.356;2023-07-13T12:18:43;24.80;33.10
10296;DHT22;5193;51.032;6.356;2023-07-13T12:21:17;24.80;1.00
10296;DHT22;5193;51.032;6.356;2023-07-13T12:23:44;24.90;1.00
10296;DHT22;5193;51.032;6.356;2023-07-13T12:26:12;24.80;16.60
10296;DHT22;5193;51.032;6.356;2023-07-13T12:28:53;25.00;99.90
10296;DHT22;5193;51.032;6.356;2023-07-13T12:31:57;25.20;1.00
10296;DHT22;5193;51.032;6.356;2023-07-13T12:34:24;25.40;1.00
10296;DHT22;5193;51.032;6.356;2023-07-13T12:36:59;25.50;1.00
10296;DHT22;5193;51.032;6.356;2023-07-13T12:39:35;25.70;99.90
10296;DHT22;5193;51.032;6.356;2023-07-13T12:42:33;25.80;1.00
10296;DHT22;5193;51.032;6.356;2023-07-13T12:45:02;25.70;1.00
10296;DHT22;5193;51.032;6.356;2023-07-13T12:47:30;25.70;99.90
10296;DHT22;5193;51.032;6.356;2023-07-13T12:49:58;25.70;99.90
10296;DHT22;5193;51.032;6.356;2023-07-13T12:52:30;25.70;99.90
10296;DHT22;5193;51.032;6.356;2023-07-13T12:55:04;25.80;99.90
10296;DHT22;5193;51.032;6.356;2023-07-13T12:57:31;25.80;99.90
10296;DHT22;5193;51.032;6.356;2023-07-13T12:59:56;25.80;1.00
10296;DHT22;5193;51.032;6.356;2023-07-13T13:02:31;25.80;99.90
10296;DHT22;5193;51.032;6.356;2023-07-13T13:04:58;25.80;99.90
10296;DHT22;5193;51.032;6.356;2023-07-13T13:07:25;25.80;99.90
10296;DHT22;5193;51.032;6.356;2023-07-13T13:09:50;25.90;99.90
10296;DHT22;5193;51.032;6.356;2023-07-13T13:12:17;25.90;57.60
10296;DHT22;5193;51.032;6.356;2023-07-13T13:14:43;25.90;75.70
10296;DHT22;5193;51.032;6.356;2023-07-13T13:17:26;26.00;99.90
10296;DHT22;5193;51.032;6.356;2023-07-13T13:19:52;26.00;99.90
10296;DHT22;5193;51.032;6.356;2023-07-13T13:22:20;26.10;99.90
10296;DHT22;5193;51.032;6.356;2023-07-13T13:24:45;26.20;99.90
10296;DHT22;5193;51.032;6.356;2023-07-13T13:27:17;26.20;99.90
10296;DHT22;5193;51.032;6.356;2023-07-13T13:29:43;26.10;99.90
10296;DHT22;5193;51.032;6.356;2023-07-13T13:32:12;26.00;99.90
10296;DHT22;5193;51.032;6.356;2023-07-13T13:34:38;26.00;99.90
10296;DHT22;5193;51.032;6.356;2023-07-13T13:37:18;26.10;99.90
10296;DHT22;5193;51.032;6.356;2023-07-13T13:39:44;26.00;97.40
10296;DHT22;5193;51.032;6.356;2023-07-13T13:42:10;26.10;99.90
10296;DHT22;5193;51.032;6.356;2023-07-13T13:44:36;26.10;99.90
10296;DHT22;5193;51.032;6.356;2023-07-13T13:47:02;26.10;99.90
10296;DHT22;5193;51.032;6.356;2023-07-13T13:49:29;26.10;99.90
10296;DHT22;5193;51.032;6.356;2023-07-13T13:51:55;26.10;33.80
10296;DHT22;5193;51.032;6.356;2023-07-13T13:54:23;26.20;89.30
10296;DHT22;5193;51.032;6.356;2023-07-13T13:56:50;26.10;3.80
10296;DHT22;5193;51.032;6.356;2023-07-13T13:59:17;26.00;78.40
10296;DHT22;5193;51.032;6.356;2023-07-13T14:01:45;26.00;99.90
10296;DHT22;5193;51.032;6.356;2023-07-13T14:04:16;26.00;95.40
10296;DHT22;5193;51.032;6.356;2023-07-13T14:06:43;26.00;99.90
10296;DHT22;5193;51.032;6.356;2023-07-13T14:09:11;26.10;99.90
10296;DHT22;5193;51.032;6.356;2023-07-13T14:11:38;26.20;99.90
10296;DHT22;5193;51.032;6.356;2023-07-13T14:14:05;26.30;38.90
10296;DHT22;5193;51.032;6.356;2023-07-13T14:16:31;26.20;40.60
10296;DHT22;5193;51.032;6.356;2023-07-13T14:18:59;26.20;37.80
10296;DHT22;5193;51.032;6.356;2023-07-13T14:21:27;26.00;7.30
10296;DHT22;5193;51.032;6.356;2023-07-13T14:23:53;25.90;11.90
10296;DHT22;5193;51.032;6.356;2023-07-13T14:26:21;25.70;94.60
10296;DHT22;5193;51.032;6.356;2023-07-13T14:28:51;25.60;87.40
10296;DHT22;5193;51.032;6.356;2023-07-13T14:31:17;25.30;91.70
10296;DHT22;5193;51.032;6.356;2023-07-13T14:33:44;25.20;1.00
10296;DHT22;5193;51.032;6.356;2023-07-13T14:36:28;25.00;24.10
10296;DHT22;5193;51.032;6.356;2023-07-13T14:38:55;24.80;1.00
10296;DHT22;5193;51.032;6.356;2023-07-13T14:41:21;24.80;11.20
10296;DHT22;5193;51.032;6.356;2023-07-13T14:43:47;24.60;97.00
10296;DHT22;5193;51.032;6.356;2023-07-13T14:46:28;24.50;1.00
10296;DHT22;5193;51.032;6.356;2023-07-13T14:51:46;24.20;72.00
10296;DHT22;5193;51.032;6.356;2023-07-13T14:54:11;24.10;71.00
10296;DHT22;5193;51.032;6.356;2023-07-13T14:56:37;23.90;99.90
10296;DHT22;5193;51.032;6.356;2023-07-13T14:59:03;23.60;99.90
10296;DHT22;5193;51.032;6.356;2023-07-13T15:01:30;23.50;1.00
10296;DHT22;5193;51.032;6.356;2023-07-13T15:03:57;23.10;99.90
10296;DHT22;5193;51.032;6.356;2023-07-13T15:06:23;22.90;99.90
10296;DHT22;5193;51.032;6.356;2023-07-13T15:08:48;22.70;99.90
10296;DHT22;5193;51.032;6.356;2023-07-13T15:11:16;22.50;1.00
10296;DHT22;5193;51.032;6.356;2023-07-13T15:13:42;22.30;99.90
10296;DHT22;5193;51.032;6.356;2023-07-13T15:16:18;22.10;1.00
10296;DHT22;5193;51.032;6.356;2023-07-13T15:18:46;22.00;99.90
10296;DHT22;5193;51.032;6.356;2023-07-13T15:21:17;21.90;1.00
10296;DHT22;5193;51.032;6.356;2023-07-13T15:23:44;21.90;10.20
10296;DHT22;5193;51.032;6.356;2023-07-13T15:26:14;21.90;99.90
10296;DHT22;5193;51.032;6.356;2023-07-13T15:28:42;21.80;99.90
10296;DHT22;5193;51.032;6.356;2023-07-13T15:31:19;21.70;1.00
10296;DHT22;5193;51.032;6.356;2023-07-13T15:33:46;21.50;1.00
10296;DHT22;5193;51.032;6.356;2023-07-13T15:36:18;21.40;99.90
10296;DHT22;5193;51.032;6.356;2023-07-13T15:38:45;21.40;99.90
10296;DHT22;5193;51.032;6.356;2023-07-13T15:41:17;21.30;1.00
10296;DHT22;5193;51.032;6.356;2023-07-13T15:43:44;21.20;99.70
10296;DHT22;5193;51.032;6.356;2023-07-13T15:46:10;21.10;1.00
10296;DHT22;5193;51.032;6.356;2023-07-13T15:48:36;21.20;99.90
10296;DHT22;5193;51.032;6.356;2023-07-13T15:51:05;21.20;99.90
10296;DHT22;5193;51.032;6.356;2023-07-13T15:53:35;21.20;99.90
10296;DHT22;5193;51.032;6.356;2023-07-13T15:56:16;21.30;1.00
10296;DHT22;5193;51.032;6.356;2023-07-13T15:58:42;21.30;99.90
10296;DHT22;5193;51.032;6.356;2023-07-13T16:01:10;21.40;99.90
10296;DHT22;5193;51.032;6.356;2023-07-13T16:03:36;21.40;1.00
10296;DHT22;5193;51.032;6.356;2023-07-13T16:06:02;21.50;1.00
10296;DHT22;5193;51.032;6.356;2023-07-13T16:08:31;21.40;99.90
10296;DHT22;5193;51.032;6.356;2023-07-13T16:10:58;21.50;1.00
10296;DHT22;5193;51.032;6.356;2023-07-13T16:13:25;21.40;99.90
10296;DHT22;5193;51.032;6.356;2023-07-13T16:15:52;21.40;99.90
10296;DHT22;5193;51.032;6.356;2023-07-13T16:18:18;21.40;1.00
10296;DHT22;5193;51.032;6.356;2023-07-13T16:20:48;21.40;63.00
10296;DHT22;5193;51.032;6.356;2023-07-13T16:23:15;21.30;1.00
10296;DHT22;5193;51.032;6.356;2023-07-13T16:25:42;21.30;1.00
10296;DHT22;5193;51.032;6.356;2023-07-13T16:28:12;21.20;99.90
10296;DHT22;5193;51.032;6.356;2023-07-13T16:30:38;21.30;1.00
10296;DHT22;5193;51.032;6.356;2023-07-13T16:33:05;21.40;1.00
10296;DHT22;5193;51.032;6.356;2023-07-13T16:35:38;21.60;99.90
10296;DHT22;5193;51.032;6.356;2023-07-13T16:38:16;21.70;1.00
10296;DHT22;5193;51.032;6.356;2023-07-13T16:40:43;21.80;99.90
10296;DHT22;5193;51.032;6.356;2023-07-13T16:43:11;22.00;1.00